Wheeler Army Airfield, Hawaii
Current Conditions -  °F | °C
As of 2:43 AM on Friday 24 Oct 2014 (Local Time) from PHHI Reporting Station
Drizzle Drizzle  
Wind Chill: 70°   Ceiling: 1800
Heat Index: 70°   Visibility: 10mi
Dew Point: 68°   Wind: 6mph
Humidity: 94%   Direction: 280°W
Pressure: 30.02"   Gusts: NA
Location:  21.4859°N, 158.036°W
Report Text: PHHI 241243Z 28005KT 10SM -DZ BKN018 21/20 A3002 RMK AO2A
Loading
Personal Weather Stations






























Interactive Weather Map
Tropical Storm Tracking
New forecast layout! Learn more

10-Day Weather Forecast

Advertisements
Track Severe Weather on mobile